SKBG/BGA METAR and TAF weather

Enter ICAO airport designator
Station Type Date Time Source
SKBG METAR 2020/01/17 22:00 UTC NOAA

SKBG 172200Z 33006KT 9999 FEW020 26/20 A2989


Station Type Date Time Source
SKBG Decoded METAR 2020/01/17 22:00 UTC NOAA

Bucaramanga / Palonegro, Colombia (SKBG) 07-06N 073-12W
Jan 17, 2020 - 05:00 PM EST / 2020.01.17 2200 UTC
Wind: from the NNW (330 degrees) at 7 MPH (6 KT):0
Visibility: greater than 7 mile(s):0
Sky conditions: mostly clear
Temperature: 78 F (26 C)
Dew Point: 68 F (20 C)
Relative Humidity: 69%
Pressure (altimeter): 29.89 in. Hg (1012 hPa)
ob: SKBG 172200Z 33006KT 9999 FEW020 26/20 A2989
cycle: 22

Station Type Date Time Source
SKBG TAF 2020/01/17 18:45 UTC NOAA

TAF TAF SKBG 171630Z 1718/1818 15008KT 9999 FEW020
BECMG 1720/1722 VRB02KT
BECMG 1807/1809 18010KT
TEMPO 1810/1813 4000 BCFG SCT010 TX29/1719Z TN19/1811Z

Example: see airport list